Airfield :







YOU CAN JOIN US ON...

 
LOGIN :

Register | Disclaimer

   EN    FR    IT 

 









Legend :    VFR   Marginal VFR   IFR   Intensive IFR   Very Intensive IFR
Visi :
Ceiling :
>= 8 km
>= 3000ft
5 to 8 km
1000 to 3000 ft
1500m to 5 km
500 to 1000 ft
800 to 1500m
200 to 500 ft
< 800m
< 200 ft
Symbols :   Thunderstorms  Fog  Heavy snow  Heavy precipitations  Wind > 20 kt






- Airport Elevation : 2042 ft
- IATA code : BRM


SVBM - Barquisimeto International

CURRENT METAR :
  • 090002Z AUTO 10008KT NCD 23/21 Q1012

EXPIRED METARs :
  • 082302Z AUTO 14010KT NCD 26/15 Q1011

TAF TAF SVBM
Valid from the 09 at 00:00 until the 10 at 00:00 UTC


082130Z 0900/1000 13008KT 7000 VCBR FEW016 TX33/0918Z TN22/1008Z
BECMG 0904/0908Z 11007KT 8000 BR SCT013



MET'MAP, your aeronautical weather chart ! - Copyright ORBIFLY December 2007 - Disclaimer

ORBIFLY MET'MAP TEAM :

Programming & Development : Alexandra Zaïnal
Concept & original design : Baudouin d'Aumeries
Assistance for programming : Marc-Olivier Méhu
Technical & hardware support : Manuel Goepfert

Contact : metmap@orbifly.com




SOURCES & CREDITS :

   NOAA